sensor_id;sensor_type;location;lat;lon;timestamp;pressure;altitude;pressure_sealevel;temperature;humidity
18749;BME280;9503;53.560;10.246;2022-07-06T00:01:55;101535.03;;;16.66;79.19
18749;BME280;9503;53.560;10.246;2022-07-06T00:04:22;101525.06;;;16.52;79.77
18749;BME280;9503;53.560;10.246;2022-07-06T00:06:49;101527.22;;;16.40;80.69
18749;BME280;9503;53.560;10.246;2022-07-06T00:09:15;101534.75;;;16.34;80.86
18749;BME280;9503;53.560;10.246;2022-07-06T00:11:43;101526.88;;;16.31;81.25
18749;BME280;9503;53.560;10.246;2022-07-06T00:14:09;101537.22;;;16.31;81.59
18749;BME280;9503;53.560;10.246;2022-07-06T00:16:38;101534.69;;;16.33;81.51
18749;BME280;9503;53.560;10.246;2022-07-06T00:19:05;101539.97;;;16.36;81.48
18749;BME280;9503;53.560;10.246;2022-07-06T00:21:31;101534.25;;;16.44;81.57
18749;BME280;9503;53.560;10.246;2022-07-06T00:23:58;101536.03;;;16.45;81.60
18749;BME280;9503;53.560;10.246;2022-07-06T00:26:26;101533.38;;;16.44;81.36
18749;BME280;9503;53.560;10.246;2022-07-06T00:28:53;101541.41;;;16.51;81.24
18749;BME280;9503;53.560;10.246;2022-07-06T00:31:19;101538.81;;;16.51;81.45
18749;BME280;9503;53.560;10.246;2022-07-06T00:33:48;101536.97;;;16.47;81.33
18749;BME280;9503;53.560;10.246;2022-07-06T00:36:18;101540.69;;;16.32;81.91
18749;BME280;9503;53.560;10.246;2022-07-06T00:38:45;101533.44;;;16.45;82.10
18749;BME280;9503;53.560;10.246;2022-07-06T00:41:12;101535.22;;;16.24;82.23
18749;BME280;9503;53.560;10.246;2022-07-06T00:43:49;101534.84;;;16.37;82.63
18749;BME280;9503;53.560;10.246;2022-07-06T00:46:16;101535.22;;;16.46;82.41
18749;BME280;9503;53.560;10.246;2022-07-06T00:48:43;101534.47;;;16.50;81.72
18749;BME280;9503;53.560;10.246;2022-07-06T00:51:12;101533.81;;;16.56;81.59
18749;BME280;9503;53.560;10.246;2022-07-06T00:53:39;101534.25;;;16.44;82.32
18749;BME280;9503;53.560;10.246;2022-07-06T00:56:07;101530.19;;;16.51;82.00
18749;BME280;9503;53.560;10.246;2022-07-06T00:58:35;101526.31;;;16.40;82.27
18749;BME280;9503;53.560;10.246;2022-07-06T01:01:02;101527.31;;;16.43;82.10
18749;BME280;9503;53.560;10.246;2022-07-06T01:03:28;101525.91;;;16.29;82.53
18749;BME280;9503;53.560;10.246;2022-07-06T01:05:55;101531.44;;;16.38;82.32
18749;BME280;9503;53.560;10.246;2022-07-06T01:08:24;101531.75;;;16.46;82.25
18749;BME280;9503;53.560;10.246;2022-07-06T01:10:51;101532.63;;;16.46;82.00
18749;BME280;9503;53.560;10.246;2022-07-06T01:13:18;101531.69;;;16.22;83.12
18749;BME280;9503;53.560;10.246;2022-07-06T01:15:45;101533.72;;;16.08;83.08
18749;BME280;9503;53.560;10.246;2022-07-06T01:18:12;101540.09;;;16.16;83.78
18749;BME280;9503;53.560;10.246;2022-07-06T01:20:40;101532.56;;;16.00;83.76
18749;BME280;9503;53.560;10.246;2022-07-06T01:23:07;101535.88;;;16.18;84.07
18749;BME280;9503;53.560;10.246;2022-07-06T01:25:34;101537.72;;;16.22;83.44
18749;BME280;9503;53.560;10.246;2022-07-06T01:28:01;101517.47;;;16.11;83.31
18749;BME280;9503;53.560;10.246;2022-07-06T01:30:27;101521.69;;;16.31;82.70
18749;BME280;9503;53.560;10.246;2022-07-06T01:32:54;101521.09;;;16.38;82.42
18749;BME280;9503;53.560;10.246;2022-07-06T01:35:22;101531.50;;;16.40;81.74
18749;BME280;9503;53.560;10.246;2022-07-06T01:37:52;101525.03;;;16.06;82.71
18749;BME280;9503;53.560;10.246;2022-07-06T01:40:19;101527.94;;;16.38;81.99
18749;BME280;9503;53.560;10.246;2022-07-06T01:42:45;101528.72;;;16.35;81.84
18749;BME280;9503;53.560;10.246;2022-07-06T01:45:12;101520.41;;;16.44;81.57
18749;BME280;9503;53.560;10.246;2022-07-06T01:47:39;101523.69;;;16.38;81.81
18749;BME280;9503;53.560;10.246;2022-07-06T01:50:08;101525.50;;;16.41;81.16
18749;BME280;9503;53.560;10.246;2022-07-06T01:52:35;101520.38;;;16.42;81.33
18749;BME280;9503;53.560;10.246;2022-07-06T01:55:04;101523.88;;;16.44;81.72
18749;BME280;9503;53.560;10.246;2022-07-06T01:57:32;101517.78;;;16.42;81.29
18749;BME280;9503;53.560;10.246;2022-07-06T01:59:59;101516.22;;;16.46;81.20
18749;BME280;9503;53.560;10.246;2022-07-06T02:02:26;101516.41;;;16.52;81.65
18749;BME280;9503;53.560;10.246;2022-07-06T02:04:53;101511.78;;;16.43;81.75
18749;BME280;9503;53.560;10.246;2022-07-06T02:07:20;101518.50;;;16.38;81.56
18749;BME280;9503;53.560;10.246;2022-07-06T02:09:46;101519.09;;;16.31;81.94
18749;BME280;9503;53.560;10.246;2022-07-06T02:12:15;101519.06;;;16.53;81.38
18749;BME280;9503;53.560;10.246;2022-07-06T02:14:41;101523.09;;;16.45;80.96
18749;BME280;9503;53.560;10.246;2022-07-06T02:17:08;101523.00;;;16.44;81.22
18749;BME280;9503;53.560;10.246;2022-07-06T02:19:35;101525.81;;;16.50;80.35
18749;BME280;9503;53.560;10.246;2022-07-06T02:22:02;101526.66;;;16.49;80.66
18749;BME280;9503;53.560;10.246;2022-07-06T02:24:29;101520.31;;;16.65;80.16
18749;BME280;9503;53.560;10.246;2022-07-06T02:26:56;101522.59;;;16.55;80.16
18749;BME280;9503;53.560;10.246;2022-07-06T02:29:24;101529.53;;;16.56;79.62
18749;BME280;9503;53.560;10.246;2022-07-06T02:31:52;101527.16;;;16.63;79.36
18749;BME280;9503;53.560;10.246;2022-07-06T02:34:18;101529.97;;;16.69;79.06
18749;BME280;9503;53.560;10.246;2022-07-06T02:36:45;101533.75;;;16.77;78.22
18749;BME280;9503;53.560;10.246;2022-07-06T02:39:12;101539.53;;;16.70;78.90
18749;BME280;9503;53.560;10.246;2022-07-06T02:41:39;101533.13;;;16.60;80.00
18749;BME280;9503;53.560;10.246;2022-07-06T02:44:06;101539.41;;;16.44;81.39
18749;BME280;9503;53.560;10.246;2022-07-06T02:46:34;101519.84;;;16.28;82.24
18749;BME280;9503;53.560;10.246;2022-07-06T02:49:01;101512.31;;;16.35;82.08
18749;BME280;9503;53.560;10.246;2022-07-06T02:51:28;101508.16;;;16.38;81.86
18749;BME280;9503;53.560;10.246;2022-07-06T02:53:54;101511.06;;;16.23;82.64
18749;BME280;9503;53.560;10.246;2022-07-06T02:56:21;101512.69;;;16.21;82.88
18749;BME280;9503;53.560;10.246;2022-07-06T02:58:48;101518.88;;;16.25;82.82
18749;BME280;9503;53.560;10.246;2022-07-06T03:01:15;101523.47;;;16.10;82.52
18749;BME280;9503;53.560;10.246;2022-07-06T03:03:44;101519.41;;;16.16;83.05
18749;BME280;9503;53.560;10.246;2022-07-06T03:06:11;101528.50;;;16.07;83.03
18749;BME280;9503;53.560;10.246;2022-07-06T03:08:38;101524.63;;;16.18;81.80
18749;BME280;9503;53.560;10.246;2022-07-06T03:11:06;101534.84;;;16.15;82.41
18749;BME280;9503;53.560;10.246;2022-07-06T03:13:33;101531.97;;;16.07;82.38
18749;BME280;9503;53.560;10.246;2022-07-06T03:15:59;101526.03;;;15.87;80.91
18749;BME280;9503;53.560;10.246;2022-07-06T03:18:27;101520.19;;;16.15;80.01
18749;BME280;9503;53.560;10.246;2022-07-06T03:20:55;101530.41;;;16.11;79.97
18749;BME280;9503;53.560;10.246;2022-07-06T03:23:22;101527.56;;;16.27;78.61
18749;BME280;9503;53.560;10.246;2022-07-06T03:25:48;101535.97;;;16.21;78.65
18749;BME280;9503;53.560;10.246;2022-07-06T03:28:15;101529.91;;;16.21;79.17
18749;BME280;9503;53.560;10.246;2022-07-06T03:30:42;101536.16;;;16.26;79.22
18749;BME280;9503;53.560;10.246;2022-07-06T03:33:09;101521.75;;;16.33;78.43
18749;BME280;9503;53.560;10.246;2022-07-06T03:35:36;101532.38;;;16.40;78.48
18749;BME280;9503;53.560;10.246;2022-07-06T03:38:04;101521.56;;;16.28;79.80
18749;BME280;9503;53.560;10.246;2022-07-06T03:40:31;101533.44;;;16.45;78.87
18749;BME280;9503;53.560;10.246;2022-07-06T03:42:57;101527.50;;;16.25;80.14
18749;BME280;9503;53.560;10.246;2022-07-06T03:47:51;101531.66;;;16.44;79.57
18749;BME280;9503;53.560;10.246;2022-07-06T03:50:18;101528.41;;;16.50;79.32
18749;BME280;9503;53.560;10.246;2022-07-06T03:52:46;101529.94;;;16.45;79.72
18749;BME280;9503;53.560;10.246;2022-07-06T03:55:14;101526.88;;;16.55;78.88
18749;BME280;9503;53.560;10.246;2022-07-06T03:57:41;101528.75;;;16.59;78.51
18749;BME280;9503;53.560;10.246;2022-07-06T04:00:09;101532.84;;;16.75;78.50
18749;BME280;9503;53.560;10.246;2022-07-06T04:02:36;101527.41;;;16.69;78.17
18749;BME280;9503;53.560;10.246;2022-07-06T04:05:03;101526.72;;;16.50;79.34
18749;BME280;9503;53.560;10.246;2022-07-06T04:07:30;101526.84;;;16.53;78.94
18749;BME280;9503;53.560;10.246;2022-07-06T04:09:57;101536.22;;;16.51;80.40
18749;BME280;9503;53.560;10.246;2022-07-06T04:12:26;101530.47;;;16.58;80.05
18749;BME280;9503;53.560;10.246;2022-07-06T04:14:55;101538.22;;;16.58;80.91
18749;BME280;9503;53.560;10.246;2022-07-06T04:17:22;101532.63;;;16.46;81.19
18749;BME280;9503;53.560;10.246;2022-07-06T04:20:08;101535.75;;;16.62;81.28
18749;BME280;9503;53.560;10.246;2022-07-06T04:22:37;101545.16;;;16.59;82.65
18749;BME280;9503;53.560;10.246;2022-07-06T04:25:05;101539.09;;;16.59;83.68
18749;BME280;9503;53.560;10.246;2022-07-06T04:27:33;101542.09;;;16.46;84.19
18749;BME280;9503;53.560;10.246;2022-07-06T04:30:00;101551.50;;;16.21;85.68
18749;BME280;9503;53.560;10.246;2022-07-06T04:32:27;101558.25;;;15.95;88.56
18749;BME280;9503;53.560;10.246;2022-07-06T04:34:54;101563.81;;;15.84;89.36
18749;BME280;9503;53.560;10.246;2022-07-06T04:37:20;101553.19;;;15.57;91.81
18749;BME280;9503;53.560;10.246;2022-07-06T04:39:47;101540.69;;;15.26;90.96
18749;BME280;9503;53.560;10.246;2022-07-06T04:42:14;101541.91;;;15.34;90.23
18749;BME280;9503;53.560;10.246;2022-07-06T04:44:43;101540.75;;;15.27;91.32
18749;BME280;9503;53.560;10.246;2022-07-06T04:47:11;101547.00;;;15.32;92.41
18749;BME280;9503;53.560;10.246;2022-07-06T04:49:37;101542.69;;;15.52;92.93
18749;BME280;9503;53.560;10.246;2022-07-06T04:52:05;101538.22;;;15.69;92.84
18749;BME280;9503;53.560;10.246;2022-07-06T04:54:32;101543.13;;;15.63;92.71
18749;BME280;9503;53.560;10.246;2022-07-06T04:56:59;101535.91;;;15.97;92.50
18749;BME280;9503;53.560;10.246;2022-07-06T04:59:26;101540.47;;;15.82;91.93
18749;BME280;9503;53.560;10.246;2022-07-06T05:01:54;101536.38;;;15.87;92.02
18749;BME280;9503;53.560;10.246;2022-07-06T05:04:21;101537.91;;;16.05;91.31
18749;BME280;9503;53.560;10.246;2022-07-06T05:06:50;101540.81;;;16.12;90.29
18749;BME280;9503;53.560;10.246;2022-07-06T05:09:17;101532.25;;;16.37;89.88
18749;BME280;9503;53.560;10.246;2022-07-06T05:11:43;101542.41;;;16.31;88.12
18749;BME280;9503;53.560;10.246;2022-07-06T05:14:10;101550.63;;;16.90;87.57
18749;BME280;9503;53.560;10.246;2022-07-06T05:16:37;101545.56;;;18.25;82.19
18749;BME280;9503;53.560;10.246;2022-07-06T05:19:05;101545.84;;;18.34;80.62
18749;BME280;9503;53.560;10.246;2022-07-06T05:21:32;101552.34;;;18.19;80.38
18749;BME280;9503;53.560;10.246;2022-07-06T05:23:59;101555.47;;;18.08;80.64
18749;BME280;9503;53.560;10.246;2022-07-06T05:26:26;101559.22;;;17.63;81.16
18749;BME280;9503;53.560;10.246;2022-07-06T05:28:53;101558.22;;;17.60;81.95
18749;BME280;9503;53.560;10.246;2022-07-06T05:31:20;101557.66;;;16.94;82.90
18749;BME280;9503;53.560;10.246;2022-07-06T05:33:46;101545.16;;;16.59;84.42
18749;BME280;9503;53.560;10.246;2022-07-06T05:36:15;101550.84;;;16.49;85.52
18749;BME280;9503;53.560;10.246;2022-07-06T05:38:42;101554.75;;;16.38;86.38
18749;BME280;9503;53.560;10.246;2022-07-06T05:41:09;101557.94;;;16.31;87.49
18749;BME280;9503;53.560;10.246;2022-07-06T05:43:36;101562.91;;;16.26;87.90
18749;BME280;9503;53.560;10.246;2022-07-06T05:46:03;101566.38;;;16.27;89.02
18749;BME280;9503;53.560;10.246;2022-07-06T05:48:30;101561.00;;;16.22;89.04
18749;BME280;9503;53.560;10.246;2022-07-06T05:51:16;101556.28;;;16.33;89.74
18749;BME280;9503;53.560;10.246;2022-07-06T05:53:43;101554.25;;;16.48;89.07
18749;BME280;9503;53.560;10.246;2022-07-06T05:56:09;101558.72;;;16.52;89.19
18749;BME280;9503;53.560;10.246;2022-07-06T05:58:36;101562.41;;;16.59;89.64
18749;BME280;9503;53.560;10.246;2022-07-06T06:01:03;101557.91;;;16.53;90.28
18749;BME280;9503;53.560;10.246;2022-07-06T06:03:32;101557.91;;;16.53;90.39
18749;BME280;9503;53.560;10.246;2022-07-06T06:05:59;101551.34;;;16.63;90.94
18749;BME280;9503;53.560;10.246;2022-07-06T06:08:27;101565.78;;;16.79;91.02
18749;BME280;9503;53.560;10.246;2022-07-06T06:10:54;101556.34;;;16.81;89.92
18749;BME280;9503;53.560;10.246;2022-07-06T06:13:21;101567.56;;;16.81;90.36
18749;BME280;9503;53.560;10.246;2022-07-06T06:15:48;101572.56;;;16.99;90.21
18749;BME280;9503;53.560;10.246;2022-07-06T06:18:15;101576.72;;;17.20;89.87
18749;BME280;9503;53.560;10.246;2022-07-06T06:20:44;101565.31;;;17.40;89.18
18749;BME280;9503;53.560;10.246;2022-07-06T06:23:11;101581.91;;;17.45;89.22
18749;BME280;9503;53.560;10.246;2022-07-06T06:25:39;101581.13;;;17.48;87.96
18749;BME280;9503;53.560;10.246;2022-07-06T06:28:07;101576.81;;;16.97;87.47
18749;BME280;9503;53.560;10.246;2022-07-06T06:30:35;101580.66;;;16.84;86.86
18749;BME280;9503;53.560;10.246;2022-07-06T06:33:06;101576.59;;;16.69;87.76
18749;BME280;9503;53.560;10.246;2022-07-06T06:35:33;101572.44;;;16.27;88.51
18749;BME280;9503;53.560;10.246;2022-07-06T06:38:00;101575.81;;;16.70;88.66
18749;BME280;9503;53.560;10.246;2022-07-06T06:40:27;101572.09;;;17.11;87.30
18749;BME280;9503;53.560;10.246;2022-07-06T06:42:55;101582.91;;;16.99;86.62
18749;BME280;9503;53.560;10.246;2022-07-06T06:45:22;101581.25;;;17.51;86.01
18749;BME280;9503;53.560;10.246;2022-07-06T06:47:49;101585.47;;;17.73;86.02
18749;BME280;9503;53.560;10.246;2022-07-06T06:50:16;101584.56;;;17.99;83.63
18749;BME280;9503;53.560;10.246;2022-07-06T06:52:43;101585.28;;;18.50;82.50
18749;BME280;9503;53.560;10.246;2022-07-06T06:55:13;101588.69;;;18.48;81.83
18749;BME280;9503;53.560;10.246;2022-07-06T06:57:40;101585.22;;;18.47;80.99
18749;BME280;9503;53.560;10.246;2022-07-06T07:00:09;101588.38;;;18.96;80.20
18749;BME280;9503;53.560;10.246;2022-07-06T07:02:36;101589.97;;;18.62;80.12
18749;BME280;9503;53.560;10.246;2022-07-06T07:05:10;101595.50;;;18.16;78.78
18749;BME280;9503;53.560;10.246;2022-07-06T07:07:37;101590.16;;;17.84;82.01
18749;BME280;9503;53.560;10.246;2022-07-06T07:10:06;101594.16;;;18.00;82.93
18749;BME280;9503;53.560;10.246;2022-07-06T07:12:33;101596.22;;;18.12;81.65
18749;BME280;9503;53.560;10.246;2022-07-06T07:15:00;101593.16;;;18.52;81.47
18749;BME280;9503;53.560;10.246;2022-07-06T07:17:28;101607.06;;;19.14;80.34
18749;BME280;9503;53.560;10.246;2022-07-06T07:19:55;101597.13;;;18.99;78.15
18749;BME280;9503;53.560;10.246;2022-07-06T07:22:22;101607.69;;;19.05;77.31
18749;BME280;9503;53.560;10.246;2022-07-06T07:24:50;101604.78;;;19.58;75.43
18749;BME280;9503;53.560;10.246;2022-07-06T07:27:16;101608.59;;;19.71;75.93
18749;BME280;9503;53.560;10.246;2022-07-06T07:29:43;101610.56;;;19.48;75.12
18749;BME280;9503;53.560;10.246;2022-07-06T07:32:10;101607.66;;;20.05;73.28
18749;BME280;9503;53.560;10.246;2022-07-06T07:34:38;101606.94;;;20.48;72.50
18749;BME280;9503;53.560;10.246;2022-07-06T07:37:04;101609.69;;;20.54;72.88
18749;BME280;9503;53.560;10.246;2022-07-06T07:39:31;101619.72;;;20.37;71.22
18749;BME280;9503;53.560;10.246;2022-07-06T07:41:58;101620.75;;;20.06;71.93
18749;BME280;9503;53.560;10.246;2022-07-06T07:44:24;101620.41;;;19.93;73.27
18749;BME280;9503;53.560;10.246;2022-07-06T07:46:52;101617.50;;;19.80;73.93
18749;BME280;9503;53.560;10.246;2022-07-06T07:49:19;101621.81;;;20.16;72.59
18749;BME280;9503;53.560;10.246;2022-07-06T07:51:47;101622.59;;;19.76;72.99
18749;BME280;9503;53.560;10.246;2022-07-06T07:54:14;101619.50;;;19.57;74.88
18749;BME280;9503;53.560;10.246;2022-07-06T07:56:41;101613.59;;;19.63;73.09
18749;BME280;9503;53.560;10.246;2022-07-06T07:59:07;101614.78;;;19.76;73.06
18749;BME280;9503;53.560;10.246;2022-07-06T08:01:34;101612.31;;;19.82;72.84
18749;BME280;9503;53.560;10.246;2022-07-06T08:04:01;101614.03;;;19.47;73.92
18749;BME280;9503;53.560;10.246;2022-07-06T08:06:28;101616.38;;;20.05;72.68
18749;BME280;9503;53.560;10.246;2022-07-06T08:08:56;101613.38;;;20.26;71.44
18749;BME280;9503;53.560;10.246;2022-07-06T08:11:22;101616.66;;;20.19;71.55
18749;BME280;9503;53.560;10.246;2022-07-06T08:13:49;101621.66;;;20.46;70.15
18749;BME280;9503;53.560;10.246;2022-07-06T08:16:16;101618.63;;;20.65;70.32
18749;BME280;9503;53.560;10.246;2022-07-06T08:18:43;101617.03;;;20.72;69.05
18749;BME280;9503;53.560;10.246;2022-07-06T08:21:10;101624.91;;;20.37;68.28
18749;BME280;9503;53.560;10.246;2022-07-06T08:23:36;101620.69;;;20.42;67.52
18749;BME280;9503;53.560;10.246;2022-07-06T08:26:04;101617.22;;;20.42;67.42
18749;BME280;9503;53.560;10.246;2022-07-06T08:28:31;101623.50;;;20.92;65.61
18749;BME280;9503;53.560;10.246;2022-07-06T08:30:58;101608.59;;;21.29;64.60
18749;BME280;9503;53.560;10.246;2022-07-06T08:33:24;101611.78;;;22.11;63.30
18749;BME280;9503;53.560;10.246;2022-07-06T08:35:51;101611.41;;;21.38;62.82
18749;BME280;9503;53.560;10.246;2022-07-06T08:38:18;101610.41;;;21.32;63.99
18749;BME280;9503;53.560;10.246;2022-07-06T08:40:47;101610.44;;;21.33;64.11
18749;BME280;9503;53.560;10.246;2022-07-06T08:43:16;101605.84;;;21.70;63.48
18749;BME280;9503;53.560;10.246;2022-07-06T08:45:44;101610.31;;;21.75;62.76
18749;BME280;9503;53.560;10.246;2022-07-06T08:48:12;101604.56;;;21.96;60.10
18749;BME280;9503;53.560;10.246;2022-07-06T08:50:39;101612.41;;;21.98;60.48
18749;BME280;9503;53.560;10.246;2022-07-06T08:53:06;101614.44;;;22.16;60.04
18749;BME280;9503;53.560;10.246;2022-07-06T08:55:33;101610.72;;;22.62;60.54
18749;BME280;9503;53.560;10.246;2022-07-06T08:58:01;101619.03;;;21.79;60.66
18749;BME280;9503;53.560;10.246;2022-07-06T09:00:31;101606.25;;;21.94;59.69
18749;BME280;9503;53.560;10.246;2022-07-06T09:02:59;101616.47;;;21.31;61.49
18749;BME280;9503;53.560;10.246;2022-07-06T09:05:26;101614.09;;;20.57;64.15
18749;BME280;9503;53.560;10.246;2022-07-06T09:07:55;101616.19;;;20.75;63.13
18749;BME280;9503;53.560;10.246;2022-07-06T09:10:22;101611.16;;;20.84;62.66
18749;BME280;9503;53.560;10.246;2022-07-06T09:12:49;101609.94;;;20.65;64.03
18749;BME280;9503;53.560;10.246;2022-07-06T09:15:16;101619.69;;;20.36;64.95
18749;BME280;9503;53.560;10.246;2022-07-06T09:17:44;101624.38;;;20.49;64.99
18749;BME280;9503;53.560;10.246;2022-07-06T09:20:12;101617.81;;;20.68;65.53
18749;BME280;9503;53.560;10.246;2022-07-06T09:22:39;101632.72;;;19.65;68.97
18749;BME280;9503;53.560;10.246;2022-07-06T09:25:08;101637.88;;;19.00;72.97
18749;BME280;9503;53.560;10.246;2022-07-06T09:27:37;101644.91;;;18.46;76.81
18749;BME280;9503;53.560;10.246;2022-07-06T09:30:05;101650.91;;;18.16;78.87
18749;BME280;9503;53.560;10.246;2022-07-06T09:32:38;101651.28;;;18.02;79.81
18749;BME280;9503;53.560;10.246;2022-07-06T09:35:07;101653.91;;;18.03;78.55
18749;BME280;9503;53.560;10.246;2022-07-06T09:37:34;101651.41;;;18.33;76.85
18749;BME280;9503;53.560;10.246;2022-07-06T09:40:02;101657.09;;;18.75;76.12
18749;BME280;9503;53.560;10.246;2022-07-06T09:42:30;101647.78;;;19.14;73.94
18749;BME280;9503;53.560;10.246;2022-07-06T09:44:58;101648.94;;;19.56;72.67
18749;BME280;9503;53.560;10.246;2022-07-06T09:47:25;101649.66;;;19.51;71.38
18749;BME280;9503;53.560;10.246;2022-07-06T09:49:55;101652.69;;;19.99;71.71
18749;BME280;9503;53.560;10.246;2022-07-06T09:52:24;101651.22;;;20.48;67.85
18749;BME280;9503;53.560;10.246;2022-07-06T09:54:51;101649.47;;;20.47;68.36
18749;BME280;9503;53.560;10.246;2022-07-06T09:57:17;101648.59;;;21.28;66.16
18749;BME280;9503;53.560;10.246;2022-07-06T09:59:50;101656.94;;;20.71;65.58
18749;BME280;9503;53.560;10.246;2022-07-06T10:02:19;101655.09;;;19.58;65.17
18749;BME280;9503;53.560;10.246;2022-07-06T10:04:48;101655.03;;;20.62;63.21
18749;BME280;9503;53.560;10.246;2022-07-06T10:07:16;101654.06;;;20.57;64.30
18749;BME280;9503;53.560;10.246;2022-07-06T10:09:46;101655.28;;;20.73;63.63
18749;BME280;9503;53.560;10.246;2022-07-06T10:12:13;101645.69;;;20.72;62.98
18749;BME280;9503;53.560;10.246;2022-07-06T10:14:42;101650.44;;;20.14;65.02
18749;BME280;9503;53.560;10.246;2022-07-06T10:17:09;101653.78;;;20.45;63.90
18749;BME280;9503;53.560;10.246;2022-07-06T10:19:36;101643.50;;;21.36;63.44
18749;BME280;9503;53.560;10.246;2022-07-06T10:22:03;101635.47;;;21.73;60.52
18749;BME280;9503;53.560;10.246;2022-07-06T10:24:30;101637.09;;;22.77;58.93
18749;BME280;9503;53.560;10.246;2022-07-06T10:27:01;101643.63;;;24.01;54.98
18749;BME280;9503;53.560;10.246;2022-07-06T10:29:30;101636.81;;;24.27;54.79
18749;BME280;9503;53.560;10.246;2022-07-06T10:31:57;101631.94;;;24.90;53.27
18749;BME280;9503;53.560;10.246;2022-07-06T10:34:24;101635.25;;;24.48;55.05
18749;BME280;9503;53.560;10.246;2022-07-06T10:36:52;101641.88;;;24.00;55.72
18749;BME280;9503;53.560;10.246;2022-07-06T10:39:32;101634.28;;;22.64;58.13
18749;BME280;9503;53.560;10.246;2022-07-06T10:42:42;101646.91;;;21.80;60.24
18749;BME280;9503;53.560;10.246;2022-07-06T10:45:11;101649.00;;;21.07;61.58
18749;BME280;9503;53.560;10.246;2022-07-06T10:47:40;101648.06;;;20.25;62.27
18749;BME280;9503;53.560;10.246;2022-07-06T10:50:07;101651.41;;;19.83;63.07
18749;BME280;9503;53.560;10.246;2022-07-06T10:52:53;101645.50;;;19.24;64.30
18749;BME280;9503;53.560;10.246;2022-07-06T10:55:31;101640.25;;;18.64;67.40
18749;BME280;9503;53.560;10.246;2022-07-06T10:57:59;101627.91;;;18.57;67.35
18749;BME280;9503;53.560;10.246;2022-07-06T11:00:47;101631.28;;;18.26;67.51
18749;BME280;9503;53.560;10.246;2022-07-06T11:03:37;101646.88;;;18.26;65.24
18749;BME280;9503;53.560;10.246;2022-07-06T11:06:06;101637.56;;;18.33;65.25
18749;BME280;9503;53.560;10.246;2022-07-06T11:08:48;101632.16;;;18.27;64.20
18749;BME280;9503;53.560;10.246;2022-07-06T11:11:16;101630.41;;;18.26;64.51
18749;BME280;9503;53.560;10.246;2022-07-06T11:13:49;101640.63;;;18.21;64.39
18749;BME280;9503;53.560;10.246;2022-07-06T11:16:16;101636.03;;;18.12;64.72
18749;BME280;9503;53.560;10.246;2022-07-06T11:18:47;101644.78;;;18.43;65.22
18749;BME280;9503;53.560;10.246;2022-07-06T11:21:32;101642.09;;;18.40;65.72
18749;BME280;9503;53.560;10.246;2022-07-06T11:23:59;101636.50;;;18.83;65.66
18749;BME280;9503;53.560;10.246;2022-07-06T11:26:27;101634.78;;;18.84;65.15
18749;BME280;9503;53.560;10.246;2022-07-06T11:28:55;101644.22;;;19.42;63.88
18749;BME280;9503;53.560;10.246;2022-07-06T11:31:24;101640.66;;;19.70;63.01
18749;BME280;9503;53.560;10.246;2022-07-06T11:33:51;101628.38;;;19.32;64.45
18749;BME280;9503;53.560;10.246;2022-07-06T11:36:19;101628.44;;;20.02;63.09
18749;BME280;9503;53.560;10.246;2022-07-06T11:38:47;101625.41;;;19.19;65.37
18749;BME280;9503;53.560;10.246;2022-07-06T11:41:15;101623.53;;;19.46;64.11
18749;BME280;9503;53.560;10.246;2022-07-06T11:43:43;101621.66;;;19.41;65.38
18749;BME280;9503;53.560;10.246;2022-07-06T11:46:25;101617.34;;;19.41;65.89
18749;BME280;9503;53.560;10.246;2022-07-06T11:48:54;101617.94;;;19.63;66.05
18749;BME280;9503;53.560;10.246;2022-07-06T11:51:22;101612.59;;;19.93;66.72
18749;BME280;9503;53.560;10.246;2022-07-06T11:53:51;101602.09;;;21.54;62.30
18749;BME280;9503;53.560;10.246;2022-07-06T11:56:18;101596.25;;;21.69;60.98
18749;BME280;9503;53.560;10.246;2022-07-06T11:58:48;101596.72;;;21.98;60.82
18749;BME280;9503;53.560;10.246;2022-07-06T12:01:15;101592.72;;;21.17;62.83
18749;BME280;9503;53.560;10.246;2022-07-06T12:03:44;101604.34;;;21.84;62.66
18749;BME280;9503;53.560;10.246;2022-07-06T12:06:18;101598.94;;;22.92;59.75
18749;BME280;9503;53.560;10.246;2022-07-06T12:08:47;101595.66;;;23.12;58.60
18749;BME280;9503;53.560;10.246;2022-07-06T12:11:19;101594.41;;;22.83;59.31
18749;BME280;9503;53.560;10.246;2022-07-06T12:13:47;101594.69;;;23.01;59.40
18749;BME280;9503;53.560;10.246;2022-07-06T12:16:15;101592.47;;;22.64;61.17
18749;BME280;9503;53.560;10.246;2022-07-06T12:18:44;101588.06;;;22.02;61.30
18749;BME280;9503;53.560;10.246;2022-07-06T12:21:14;101586.38;;;22.66;60.36
18749;BME280;9503;53.560;10.246;2022-07-06T12:23:44;101584.59;;;23.42;58.34
18749;BME280;9503;53.560;10.246;2022-07-06T12:26:11;101576.00;;;22.74;58.62
18749;BME280;9503;53.560;10.246;2022-07-06T12:28:38;101570.25;;;23.02;56.50
18749;BME280;9503;53.560;10.246;2022-07-06T12:31:05;101565.47;;;22.69;55.29
18749;BME280;9503;53.560;10.246;2022-07-06T12:33:32;101563.00;;;23.60;54.04
18749;BME280;9503;53.560;10.246;2022-07-06T12:36:11;101565.97;;;24.12;52.76
18749;BME280;9503;53.560;10.246;2022-07-06T12:38:44;101567.03;;;24.39;52.41
18749;BME280;9503;53.560;10.246;2022-07-06T12:41:23;101557.38;;;24.38;52.45
18749;BME280;9503;53.560;10.246;2022-07-06T12:44:00;101557.56;;;24.82;52.89
18749;BME280;9503;53.560;10.246;2022-07-06T12:46:29;101560.19;;;24.90;51.35
18749;BME280;9503;53.560;10.246;2022-07-06T12:48:56;101560.31;;;25.84;51.00
18749;BME280;9503;53.560;10.246;2022-07-06T12:51:25;101560.34;;;25.77;52.07
18749;BME280;9503;53.560;10.246;2022-07-06T12:53:53;101550.69;;;25.19;51.70
18749;BME280;9503;53.560;10.246;2022-07-06T12:56:55;101551.38;;;24.66;51.85
18749;BME280;9503;53.560;10.246;2022-07-06T12:59:23;101542.81;;;25.77;48.11